Terminal Aerodrome Forecast
Issued by NWS

Home | Current Version | Previous Version | Graphics & Text | Print | Product List | Glossary On
Versions: 1 2 3 4 5 6 7 8 9 10 11 12 13
000
FTUS43 KGRB 312325
TAFMTW
TAF
KMTW 312325Z 0100/0124 04009KT P6SM SKC
     FM010300 02005KT P6SM BKN250
     FM011600 07009G15KT P6SM FEW035=

USA.gov is the U.S. government's official web portal to all federal, state and local government web resources and services.